createdAt,value
2022-10-23T00:00:47.794Z,11.99
2022-10-23T00:01:46.665Z,11.97
2022-10-23T00:02:45.983Z,11.97
2022-10-23T00:03:45.431Z,11.95
2022-10-23T00:04:45.359Z,11.95
2022-10-23T00:05:46.208Z,11.89
2022-10-23T00:06:46.112Z,11.89
2022-10-23T00:07:46.073Z,11.87
2022-10-23T00:08:47.340Z,11.87
2022-10-23T00:09:46.104Z,11.84
2022-10-23T00:10:46.912Z,11.85
2022-10-23T00:11:47.553Z,11.84
2022-10-23T00:12:45.429Z,11.84
2022-10-23T00:13:46.216Z,11.82
2022-10-23T00:14:48.763Z,11.80
2022-10-23T00:15:46.377Z,11.80
2022-10-23T00:16:46.016Z,11.77
2022-10-23T00:17:46.000Z,11.77
2022-10-23T00:18:46.477Z,11.77
2022-10-23T00:19:45.974Z,11.76
2022-10-23T00:20:45.830Z,11.74
2022-10-23T00:21:46.806Z,11.76
2022-10-23T00:22:46.161Z,11.76
2022-10-23T00:23:45.057Z,11.76
2022-10-23T00:24:46.449Z,11.76
2022-10-23T00:25:46.401Z,11.76
2022-10-23T00:26:45.141Z,11.74
2022-10-23T00:27:46.450Z,11.71
2022-10-23T00:28:45.806Z,11.71
2022-10-23T00:29:45.891Z,11.67
2022-10-23T00:30:45.838Z,11.64
2022-10-23T00:31:46.489Z,11.61
2022-10-23T00:32:45.101Z,11.59
2022-10-23T00:33:45.875Z,11.55
2022-10-23T00:34:46.823Z,11.54
2022-10-23T00:35:46.757Z,11.52
2022-10-23T00:36:46.027Z,11.54
2022-10-23T00:37:45.125Z,11.54
2022-10-23T00:38:46.835Z,11.54
2022-10-23T00:39:46.298Z,11.55
2022-10-23T00:40:45.045Z,11.52
2022-10-23T00:41:46.438Z,11.54
2022-10-23T00:42:45.946Z,11.51
2022-10-23T00:43:45.165Z,11.49
2022-10-23T00:44:45.890Z,11.48
2022-10-23T00:45:45.807Z,11.46
2022-10-23T00:46:46.599Z,11.43
2022-10-23T00:47:45.718Z,11.41
2022-10-23T00:48:46.713Z,11.41
2022-10-23T00:49:45.645Z,11.41
2022-10-23T00:50:46.342Z,11.41
2022-10-23T00:51:47.938Z,11.41
2022-10-23T00:52:45.743Z,11.43
2022-10-23T00:53:46.326Z,11.43
2022-10-23T00:54:46.240Z,11.41
2022-10-23T00:55:45.949Z,11.43
2022-10-23T00:56:47.436Z,11.45
2022-10-23T00:57:45.571Z,11.46
2022-10-23T00:58:44.773Z,11.46
2022-10-23T00:59:44.707Z,11.46
2022-10-23T01:00:44.702Z,11.45
2022-10-23T01:01:45.772Z,11.46
2022-10-23T01:02:45.971Z,11.48
2022-10-23T01:03:44.741Z,11.46
2022-10-23T01:04:46.701Z,11.46
2022-10-23T01:05:45.526Z,11.43
2022-10-23T01:06:48.383Z,11.41
2022-10-23T01:07:46.082Z,11.40
2022-10-23T01:08:47.078Z,11.38
2022-10-23T01:09:46.382Z,11.36
2022-10-23T01:10:46.458Z,11.33
2022-10-23T01:11:45.504Z,11.33
2022-10-23T01:12:46.420Z,11.31
2022-10-23T01:13:46.434Z,11.31
2022-10-23T01:14:44.489Z,11.34
2022-10-23T01:15:45.970Z,11.33
2022-10-23T01:16:44.582Z,11.33
2022-10-23T01:17:45.945Z,11.30
2022-10-23T01:18:45.337Z,11.30
2022-10-23T01:19:45.205Z,11.30
2022-10-23T01:20:44.616Z,11.28
2022-10-23T01:21:45.332Z,11.28
2022-10-23T01:22:47.113Z,11.28
2022-10-23T01:23:45.250Z,11.28
2022-10-23T01:24:45.072Z,11.28
2022-10-23T01:25:45.368Z,11.28
2022-10-23T01:26:44.535Z,11.28
2022-10-23T01:27:45.750Z,11.25
2022-10-23T01:28:45.217Z,11.23
2022-10-23T01:29:45.066Z,11.20
2022-10-23T01:30:44.543Z,11.20
2022-10-23T01:31:44.504Z,11.18
2022-10-23T01:32:45.856Z,11.15
2022-10-23T01:33:46.236Z,11.13
2022-10-23T01:34:44.987Z,11.12
2022-10-23T01:35:45.222Z,11.11
2022-10-23T01:36:44.314Z,11.12
2022-10-23T01:37:44.412Z,11.15
2022-10-23T01:38:44.297Z,11.16
2022-10-23T01:39:45.138Z,11.18
2022-10-23T01:40:45.847Z,11.18
2022-10-23T01:41:46.035Z,11.18
2022-10-23T01:42:44.543Z,11.18
2022-10-23T01:43:45.183Z,11.16
2022-10-23T01:44:45.005Z,11.18
2022-10-23T01:45:45.164Z,11.18
2022-10-23T01:46:45.000Z,11.18
2022-10-23T01:47:45.454Z,11.19
2022-10-23T01:48:45.125Z,11.19
2022-10-23T01:49:45.821Z,11.18
2022-10-23T01:50:45.953Z,11.19
2022-10-23T01:51:45.755Z,11.18
2022-10-23T01:52:46.000Z,11.22
2022-10-23T01:53:45.059Z,11.19
2022-10-23T01:54:45.655Z,11.20
2022-10-23T01:55:44.005Z,11.20
2022-10-23T01:56:43.993Z,11.22
2022-10-23T01:57:44.486Z,11.23
2022-10-23T01:58:44.001Z,11.22
2022-10-23T01:59:43.954Z,11.22
2022-10-23T02:00:43.943Z,11.22
2022-10-23T02:01:44.061Z,11.25
2022-10-23T02:02:45.072Z,11.25
2022-10-23T02:03:43.904Z,11.28
2022-10-23T02:04:43.905Z,11.27
2022-10-23T02:05:43.885Z,11.30
2022-10-23T02:06:43.883Z,11.31
2022-10-23T02:07:44.332Z,11.33
2022-10-23T02:08:44.020Z,11.33
2022-10-23T02:09:43.842Z,11.33
2022-10-23T02:10:43.831Z,11.30
2022-10-23T02:11:43.822Z,11.31
2022-10-23T02:12:43.825Z,11.31
2022-10-23T02:13:43.808Z,11.31
2022-10-23T02:14:43.853Z,11.31
2022-10-23T02:15:43.778Z,11.36
2022-10-23T02:16:43.782Z,11.34
2022-10-23T02:17:43.970Z,11.36
2022-10-23T02:18:43.760Z,11.36
2022-10-23T02:19:43.772Z,11.37
2022-10-23T02:21:43.726Z,11.37
2022-10-23T02:22:44.006Z,11.38
2022-10-23T02:23:43.702Z,11.36
2022-10-23T02:24:43.732Z,11.37
2022-10-23T02:25:43.682Z,11.36
2022-10-23T02:26:43.685Z,11.36
2022-10-23T02:27:43.682Z,11.36
2022-10-23T02:28:43.641Z,11.37
2022-10-23T02:29:47.262Z,11.38
2022-10-23T02:30:43.622Z,11.40
2022-10-23T02:31:43.621Z,11.40
2022-10-23T02:32:44.022Z,11.41
2022-10-23T02:33:43.588Z,11.46
2022-10-23T02:34:43.611Z,11.49
2022-10-23T02:35:43.562Z,11.51
2022-10-23T02:36:43.581Z,11.52
2022-10-23T02:37:43.901Z,11.54
2022-10-23T02:38:43.581Z,11.52
2022-10-23T02:39:43.521Z,11.51
2022-10-23T02:40:43.600Z,11.49
2022-10-23T02:41:43.503Z,11.49
2022-10-23T02:42:43.521Z,11.46
2022-10-23T02:43:43.633Z,11.46
2022-10-23T02:44:43.502Z,11.48
2022-10-23T02:45:43.489Z,11.48
2022-10-23T02:46:43.481Z,11.49
2022-10-23T02:47:43.819Z,11.49
2022-10-23T02:48:43.430Z,11.49
2022-10-23T02:49:43.410Z,11.46
2022-10-23T02:50:43.410Z,11.43
2022-10-23T02:51:43.401Z,11.40
2022-10-23T02:52:43.422Z,11.40
2022-10-23T02:53:43.372Z,11.43
2022-10-23T02:54:43.390Z,11.45
2022-10-23T02:55:43.387Z,11.48
2022-10-23T02:56:43.340Z,11.46
2022-10-23T02:57:43.636Z,11.48
2022-10-23T02:58:43.327Z,11.48
2022-10-23T02:59:43.301Z,11.49
2022-10-23T03:00:43.300Z,11.51
2022-10-23T03:01:43.414Z,11.52
2022-10-23T03:02:43.279Z,11.51
2022-10-23T03:03:43.261Z,11.54
2022-10-23T03:04:43.258Z,11.55
2022-10-23T03:05:43.241Z,11.55
2022-10-23T03:06:43.457Z,11.56
2022-10-23T03:07:43.591Z,11.58
2022-10-23T03:08:43.219Z,11.61
2022-10-23T03:09:43.220Z,11.61
2022-10-23T03:10:43.262Z,11.61
2022-10-23T03:11:43.190Z,11.62
2022-10-23T03:12:43.414Z,11.62
2022-10-23T03:13:43.188Z,11.61
2022-10-23T03:14:43.170Z,11.61
2022-10-23T03:15:43.140Z,11.62
2022-10-23T03:16:43.131Z,11.61
2022-10-23T03:17:43.130Z,11.61
2022-10-23T03:18:43.141Z,11.61
2022-10-23T03:19:43.091Z,11.62
2022-10-23T03:20:43.089Z,11.61
2022-10-23T03:21:43.080Z,11.62
2022-10-23T03:22:43.291Z,11.66
2022-10-23T03:23:43.049Z,11.66
2022-10-23T03:24:43.070Z,11.67
2022-10-23T03:25:43.059Z,11.66
2022-10-23T03:26:43.058Z,11.67
2022-10-23T03:27:43.010Z,11.66
2022-10-23T03:28:43.034Z,11.64
2022-10-23T03:29:43.031Z,11.62
2022-10-23T03:30:42.981Z,11.61
2022-10-23T03:31:42.969Z,11.61
2022-10-23T03:32:43.297Z,11.62
2022-10-23T03:33:42.949Z,11.62
2022-10-23T03:34:42.942Z,11.64
2022-10-23T03:35:42.989Z,11.66
2022-10-23T03:36:42.952Z,11.66
2022-10-23T03:37:43.199Z,11.66
2022-10-23T03:38:42.899Z,11.67
2022-10-23T03:39:42.889Z,11.71
2022-10-23T03:40:42.916Z,11.74
2022-10-23T03:41:42.883Z,11.73
2022-10-23T03:42:42.850Z,11.73
2022-10-23T03:43:42.865Z,11.73
2022-10-23T03:44:42.829Z,11.69
2022-10-23T03:45:42.826Z,11.66
2022-10-23T03:46:42.800Z,11.64
2022-10-23T03:47:43.108Z,11.64
2022-10-23T03:48:42.799Z,11.64
2022-10-23T03:49:42.769Z,11.64
2022-10-23T03:50:42.768Z,11.66
2022-10-23T03:51:42.761Z,11.69
2022-10-23T03:52:43.131Z,11.74
2022-10-23T03:53:42.729Z,11.82
2022-10-23T03:54:42.719Z,11.87
2022-10-23T03:55:42.739Z,11.91
2022-10-23T03:56:42.709Z,11.96
2022-10-23T03:57:42.719Z,11.99
2022-10-23T03:58:42.678Z,12.03
2022-10-23T03:59:42.669Z,12.07
2022-10-23T04:01:42.939Z,12.08
2022-10-23T04:02:43.012Z,12.11
2022-10-23T04:03:42.628Z,12.11
2022-10-23T04:04:42.617Z,12.11
2022-10-23T04:05:42.626Z,12.13
2022-10-23T04:06:42.628Z,12.14
2022-10-23T04:07:42.579Z,12.15
2022-10-23T04:08:42.568Z,12.17
2022-10-23T04:09:42.575Z,12.17
2022-10-23T04:10:42.587Z,12.18
2022-10-23T04:11:42.552Z,12.18
2022-10-23T04:12:42.845Z,12.17
2022-10-23T04:13:42.526Z,12.18
2022-10-23T04:14:44.838Z,12.22
2022-10-23T04:15:42.569Z,12.22
2022-10-23T04:16:42.509Z,12.22
2022-10-23T04:17:42.479Z,12.21
2022-10-23T04:18:42.459Z,12.21
2022-10-23T04:19:42.514Z,12.21
2022-10-23T04:20:42.457Z,12.18
2022-10-23T04:21:42.458Z,12.17
2022-10-23T04:22:49.945Z,12.14
2022-10-23T04:23:42.420Z,12.11
2022-10-23T04:24:42.392Z,12.10
2022-10-23T04:25:42.448Z,12.08
2022-10-23T04:26:42.412Z,12.08
2022-10-23T04:27:42.855Z,12.11
2022-10-23T04:28:42.353Z,12.14
2022-10-23T04:29:42.343Z,12.15
2022-10-23T04:30:42.335Z,12.18
2022-10-23T04:31:42.335Z,12.18
2022-10-23T04:32:42.312Z,12.18
2022-10-23T04:33:42.335Z,12.22
2022-10-23T04:34:42.295Z,12.22
2022-10-23T04:35:42.288Z,12.18
2022-10-23T04:36:42.261Z,12.22
2022-10-23T04:37:42.515Z,12.22
2022-10-23T04:38:42.250Z,12.23
2022-10-23T04:39:42.281Z,12.23
2022-10-23T04:40:42.222Z,12.23
2022-10-23T04:41:42.249Z,12.22
2022-10-23T04:42:42.503Z,12.22
2022-10-23T04:43:42.220Z,12.17
2022-10-23T04:44:42.181Z,12.15
2022-10-23T04:45:42.202Z,12.11
2022-10-23T04:46:42.193Z,12.08
2022-10-23T04:47:42.154Z,12.11
2022-10-23T04:48:42.144Z,12.13
2022-10-23T04:49:42.129Z,12.15
2022-10-23T04:50:42.151Z,12.18
2022-10-23T04:51:42.112Z,12.18
2022-10-23T04:52:42.457Z,12.15
2022-10-23T04:53:42.092Z,12.14
2022-10-23T04:54:42.102Z,12.10
2022-10-23T04:55:43.352Z,12.11
2022-10-23T04:56:42.052Z,12.10
2022-10-23T04:57:42.053Z,12.14
2022-10-23T04:58:42.060Z,12.18
2022-10-23T04:59:42.022Z,12.22
2022-10-23T05:00:42.025Z,12.25
2022-10-23T05:01:42.036Z,12.28
2022-10-23T05:02:42.254Z,12.33
2022-10-23T05:03:41.981Z,12.35
2022-10-23T05:04:41.991Z,12.35
2022-10-23T05:05:46.023Z,12.35
2022-10-23T05:06:41.941Z,12.36
2022-10-23T05:07:42.270Z,12.38
2022-10-23T05:08:41.932Z,12.35
2022-10-23T05:09:41.919Z,12.35
2022-10-23T05:10:41.902Z,12.35
2022-10-23T05:11:41.922Z,12.36
2022-10-23T05:12:41.882Z,12.36
2022-10-23T05:13:41.874Z,12.35
2022-10-23T05:14:41.861Z,12.32
2022-10-23T05:16:41.934Z,12.29
2022-10-23T05:17:42.107Z,12.30
2022-10-23T05:18:41.822Z,12.35
2022-10-23T05:19:41.811Z,12.40
2022-10-23T05:20:41.801Z,12.41
2022-10-23T05:21:41.791Z,12.44
2022-10-23T05:22:41.919Z,12.44
2022-10-23T05:23:41.761Z,12.46
2022-10-23T05:24:41.761Z,12.46
2022-10-23T05:25:41.749Z,12.46
2022-10-23T05:26:41.730Z,12.46
2022-10-23T05:27:42.208Z,12.47
2022-10-23T05:28:41.711Z,12.50
2022-10-23T05:29:41.702Z,12.54
2022-10-23T05:30:41.930Z,12.51
2022-10-23T05:31:41.680Z,12.50
2022-10-23T05:32:41.856Z,12.48
2022-10-23T05:33:41.661Z,12.46
2022-10-23T05:34:41.791Z,12.46
2022-10-23T05:35:41.641Z,12.47
2022-10-23T05:36:41.638Z,12.48
2022-10-23T05:37:41.621Z,12.48
2022-10-23T05:38:41.610Z,12.48
2022-10-23T05:39:41.600Z,12.46
2022-10-23T05:40:41.932Z,12.46
2022-10-23T05:41:41.590Z,12.44
2022-10-23T05:42:41.831Z,12.44
2022-10-23T05:43:41.561Z,12.41
2022-10-23T05:44:41.550Z,12.38
2022-10-23T05:45:41.889Z,12.40
2022-10-23T05:46:41.520Z,12.41
2022-10-23T05:47:41.539Z,12.46
2022-10-23T05:48:41.501Z,12.46
2022-10-23T05:49:41.528Z,12.47
2022-10-23T05:50:41.481Z,12.48
2022-10-23T05:51:41.470Z,12.47
2022-10-23T05:52:41.813Z,12.46
2022-10-23T05:53:42.550Z,12.44
2022-10-23T05:54:41.470Z,12.43
2022-10-23T05:55:41.429Z,12.41
2022-10-23T05:56:41.525Z,12.41
2022-10-23T05:57:41.893Z,12.41
2022-10-23T05:58:41.391Z,12.40
2022-10-23T05:59:41.394Z,12.40
2022-10-23T06:00:41.378Z,12.40
2022-10-23T06:01:41.540Z,12.41
2022-10-23T06:02:41.451Z,12.43
2022-10-23T06:03:41.370Z,12.43
2022-10-23T06:04:41.350Z,12.43
2022-10-23T06:05:41.322Z,12.43
2022-10-23T06:06:41.309Z,12.43
2022-10-23T06:07:41.469Z,12.44
2022-10-23T06:08:41.288Z,12.44
2022-10-23T06:09:41.309Z,12.44
2022-10-23T06:10:41.269Z,12.43
2022-10-23T06:11:41.319Z,12.41
2022-10-23T06:12:41.249Z,12.43
2022-10-23T06:13:41.236Z,12.41
2022-10-23T06:14:41.229Z,12.44
2022-10-23T06:15:41.219Z,12.44
2022-10-23T06:16:41.246Z,12.47
2022-10-23T06:17:41.585Z,12.47
2022-10-23T06:18:41.184Z,12.47
2022-10-23T06:19:41.168Z,12.48
2022-10-23T06:20:41.169Z,12.51
2022-10-23T06:21:41.187Z,12.50
2022-10-23T06:22:41.432Z,12.51
2022-10-23T06:23:41.129Z,12.51
2022-10-23T06:24:41.119Z,12.51
2022-10-23T06:25:41.108Z,12.54
2022-10-23T06:26:41.089Z,12.55
2022-10-23T06:27:41.119Z,12.55
2022-10-23T06:28:41.079Z,12.58
2022-10-23T06:29:41.069Z,12.59
2022-10-23T06:30:41.069Z,12.59
2022-10-23T06:31:41.259Z,12.59
2022-10-23T06:32:41.507Z,12.61
2022-10-23T06:33:41.028Z,12.62
2022-10-23T06:34:41.029Z,12.63
2022-10-23T06:35:41.010Z,12.62
2022-10-23T06:36:41.010Z,12.63
2022-10-23T06:37:41.200Z,12.63
2022-10-23T06:38:41.006Z,12.65
2022-10-23T06:39:40.969Z,12.65
2022-10-23T06:40:40.970Z,12.66
2022-10-23T06:41:41.229Z,12.68
2022-10-23T06:42:41.185Z,12.69
2022-10-23T06:43:40.919Z,12.68
2022-10-23T06:44:40.908Z,12.71
2022-10-23T06:45:41.248Z,12.73
2022-10-23T06:46:40.901Z,12.76
2022-10-23T06:47:41.069Z,12.76
2022-10-23T06:48:40.939Z,12.76
2022-10-23T06:49:40.858Z,12.79
2022-10-23T06:50:40.870Z,12.79
2022-10-23T06:51:40.838Z,12.79
2022-10-23T06:52:46.860Z,12.79
2022-10-23T06:53:41.807Z,12.79
2022-10-23T06:54:40.799Z,12.80
2022-10-23T06:55:40.859Z,12.81
2022-10-23T06:56:40.778Z,12.81
2022-10-23T06:57:41.117Z,12.83
2022-10-23T06:58:40.767Z,12.84
2022-10-23T06:59:40.748Z,12.86
2022-10-23T07:00:40.810Z,12.86
2022-10-23T07:01:40.971Z,12.86
2022-10-23T07:02:40.959Z,12.86
2022-10-23T07:03:40.709Z,12.86
2022-10-23T07:04:40.695Z,12.87
2022-10-23T07:05:40.686Z,12.87
2022-10-23T07:06:40.688Z,12.87
2022-10-23T07:07:40.708Z,12.86
2022-10-23T07:08:40.649Z,12.87
2022-10-23T07:09:40.638Z,12.86
2022-10-23T07:10:40.709Z,12.86
2022-10-23T07:11:40.621Z,12.87
2022-10-23T07:12:40.996Z,12.87
2022-10-23T07:13:40.612Z,12.88
2022-10-23T07:14:40.607Z,12.90
2022-10-23T07:15:40.581Z,12.90
2022-10-23T07:16:40.591Z,12.90
2022-10-23T07:17:40.568Z,12.91
2022-10-23T07:18:40.539Z,12.93
2022-10-23T07:19:40.535Z,12.95
2022-10-23T07:20:40.518Z,12.96
2022-10-23T07:21:40.518Z,12.95
2022-10-23T07:22:40.753Z,12.96
2022-10-23T07:23:40.526Z,12.98
2022-10-23T07:24:40.478Z,12.99
2022-10-23T07:25:40.468Z,13.01
2022-10-23T07:26:40.700Z,13.02
2022-10-23T07:27:40.799Z,13.04
2022-10-23T07:28:40.435Z,13.05
2022-10-23T07:29:40.468Z,13.05
2022-10-23T07:30:40.408Z,13.05
2022-10-23T07:31:40.457Z,13.06
2022-10-23T07:32:40.407Z,13.08
2022-10-23T07:33:40.399Z,13.08
2022-10-23T07:34:40.384Z,13.08
2022-10-23T07:35:40.397Z,13.09
2022-10-23T07:36:40.348Z,13.11
2022-10-23T07:37:40.548Z,13.13
2022-10-23T07:38:40.346Z,13.14
2022-10-23T07:39:40.327Z,13.14
2022-10-23T07:40:40.348Z,13.14
2022-10-23T07:41:40.336Z,13.16
2022-10-23T07:42:40.280Z,13.17
2022-10-23T07:43:40.292Z,13.17
2022-10-23T07:44:40.269Z,13.20
2022-10-23T07:45:40.256Z,13.20
2022-10-23T07:46:40.287Z,13.21
2022-10-23T07:47:40.599Z,13.23
2022-10-23T07:48:40.221Z,13.26
2022-10-23T07:49:40.260Z,13.27
2022-10-23T07:50:40.228Z,13.29
2022-10-23T07:51:40.396Z,13.30
2022-10-23T07:52:40.176Z,13.32
2022-10-23T07:53:40.171Z,13.36
2022-10-23T07:54:40.154Z,13.36
2022-10-23T07:55:40.187Z,13.38
2022-10-23T07:56:40.185Z,13.40
2022-10-23T07:57:40.150Z,13.42
2022-10-23T07:58:40.147Z,13.43
2022-10-23T07:59:40.177Z,13.45
2022-10-23T08:00:40.087Z,13.47
2022-10-23T08:01:40.181Z,13.49
2022-10-23T08:02:40.485Z,13.49
2022-10-23T08:03:40.053Z,13.54
2022-10-23T08:04:40.046Z,13.55
2022-10-23T08:05:40.026Z,13.58
2022-10-23T08:06:40.031Z,13.61
2022-10-23T08:07:40.066Z,13.64
2022-10-23T08:08:40.073Z,13.65
2022-10-23T08:09:39.987Z,13.67
2022-10-23T08:10:39.985Z,13.68
2022-10-23T08:11:39.966Z,13.72
2022-10-23T08:12:40.188Z,13.73
2022-10-23T08:13:39.966Z,13.75
2022-10-23T08:14:39.972Z,13.78
2022-10-23T08:15:39.927Z,13.79
2022-10-23T08:16:40.010Z,13.82
2022-10-23T08:17:40.086Z,13.83
2022-10-23T08:18:39.903Z,13.86
2022-10-23T08:19:39.877Z,13.88
2022-10-23T08:20:39.878Z,13.90
2022-10-23T08:21:39.866Z,13.91
2022-10-23T08:22:39.886Z,13.94
2022-10-23T08:23:39.838Z,13.96
2022-10-23T08:24:39.856Z,13.96
2022-10-23T08:25:39.820Z,13.98
2022-10-23T08:26:39.826Z,14.01
2022-10-23T08:27:39.861Z,14.01
2022-10-23T08:28:41.576Z,14.03
2022-10-23T08:29:39.777Z,14.08
2022-10-23T08:30:39.766Z,14.08
2022-10-23T08:31:39.755Z,14.11
2022-10-23T08:32:39.767Z,14.12
2022-10-23T08:33:39.815Z,14.15
2022-10-23T08:34:39.747Z,14.16
2022-10-23T08:35:39.716Z,14.18
2022-10-23T08:36:39.719Z,14.19
2022-10-23T08:37:39.903Z,14.22
2022-10-23T08:38:39.679Z,14.26
2022-10-23T08:39:39.687Z,14.26
2022-10-23T08:40:39.712Z,14.28
2022-10-23T08:41:39.687Z,14.31
2022-10-23T08:42:39.721Z,14.34
2022-10-23T08:43:39.646Z,14.36
2022-10-23T08:44:39.629Z,14.38
2022-10-23T08:45:39.598Z,14.40
2022-10-23T08:46:39.587Z,14.45
2022-10-23T08:47:39.635Z,14.48
2022-10-23T08:48:39.575Z,14.51
2022-10-23T08:49:39.648Z,14.53
2022-10-23T08:50:39.557Z,14.55
2022-10-23T08:51:39.533Z,14.58
2022-10-23T08:52:39.526Z,14.61
2022-10-23T08:53:39.516Z,14.66
2022-10-23T08:54:39.567Z,14.67
2022-10-23T08:55:39.516Z,14.71
2022-10-23T08:56:39.548Z,14.77
2022-10-23T08:57:42.753Z,14.79
2022-10-23T08:58:39.493Z,14.83
2022-10-23T08:59:39.458Z,14.86
2022-10-23T09:00:39.524Z,14.89
2022-10-23T09:01:39.621Z,14.92
2022-10-23T09:02:39.429Z,14.96
2022-10-23T09:03:39.530Z,14.97
2022-10-23T09:04:39.398Z,15.01
2022-10-23T09:05:39.387Z,15.05
2022-10-23T09:06:39.449Z,15.07
2022-10-23T09:07:39.385Z,15.10
2022-10-23T09:08:39.368Z,15.12
2022-10-23T09:09:39.348Z,15.15
2022-10-23T09:10:39.338Z,15.17
2022-10-23T09:11:39.412Z,15.20
2022-10-23T09:12:39.318Z,15.23
2022-10-23T09:13:39.297Z,15.27
2022-10-23T09:14:39.296Z,15.30
2022-10-23T09:15:39.286Z,15.35
2022-10-23T09:16:39.315Z,15.38
2022-10-23T09:17:39.282Z,15.41
2022-10-23T09:18:39.256Z,15.52
2022-10-23T09:19:39.248Z,15.65
2022-10-23T09:20:39.367Z,15.77
2022-10-23T09:21:39.219Z,15.87
2022-10-23T09:22:39.367Z,15.96
2022-10-23T09:23:39.196Z,16.06
2022-10-23T09:24:39.197Z,16.13
2022-10-23T09:25:39.198Z,16.18
2022-10-23T09:26:39.197Z,16.26
2022-10-23T09:27:39.156Z,16.34
2022-10-23T09:28:39.190Z,16.39
2022-10-23T09:29:39.126Z,16.40
2022-10-23T09:30:39.343Z,16.39
2022-10-23T09:31:39.137Z,16.36
2022-10-23T09:32:39.106Z,16.33
2022-10-23T09:33:39.154Z,16.28
2022-10-23T09:34:39.116Z,16.26
2022-10-23T09:35:39.076Z,16.24
2022-10-23T09:36:39.067Z,16.22
2022-10-23T09:37:39.066Z,16.17
2022-10-23T09:38:39.043Z,16.13
2022-10-23T09:39:39.037Z,16.10
2022-10-23T09:40:39.047Z,16.08
2022-10-23T09:41:39.017Z,16.06
2022-10-23T09:42:38.996Z,16.05
2022-10-23T09:43:38.986Z,16.03
2022-10-23T09:44:38.977Z,16.03
2022-10-23T09:45:38.966Z,16.02
2022-10-23T09:46:39.040Z,16.03
2022-10-23T09:47:38.944Z,16.03
2022-10-23T09:48:38.956Z,16.00
2022-10-23T09:49:38.926Z,16.03
2022-10-23T09:50:38.943Z,16.03
2022-10-23T09:51:38.897Z,16.03
2022-10-23T09:52:38.955Z,16.05
2022-10-23T09:53:39.000Z,16.03
2022-10-23T09:54:38.889Z,16.06
2022-10-23T09:55:38.856Z,16.06
2022-10-23T09:56:38.917Z,16.08
2022-10-23T09:57:38.896Z,16.09
2022-10-23T09:58:38.845Z,16.09
2022-10-23T09:59:38.805Z,16.13
2022-10-23T10:00:38.861Z,16.13
2022-10-23T10:01:38.924Z,16.16
2022-10-23T10:02:38.798Z,16.17
2022-10-23T10:03:38.798Z,16.21
2022-10-23T10:04:38.772Z,16.22
2022-10-23T10:05:38.756Z,16.26
2022-10-23T10:06:38.815Z,16.28
2022-10-23T10:07:38.776Z,16.29
2022-10-23T10:08:39.788Z,16.33
2022-10-23T10:09:38.718Z,16.33
2022-10-23T10:10:38.758Z,16.34
2022-10-23T10:11:38.687Z,16.39
2022-10-23T10:12:38.682Z,16.42
2022-10-23T10:13:38.659Z,16.43
2022-10-23T10:14:38.696Z,16.46
2022-10-23T10:15:38.718Z,16.46
2022-10-23T10:17:38.638Z,16.49
2022-10-23T10:18:38.639Z,16.51
2022-10-23T10:19:42.177Z,16.54
2022-10-23T10:20:38.596Z,16.54
2022-10-23T10:21:38.598Z,16.57
2022-10-23T10:22:38.608Z,16.61
2022-10-23T10:23:38.598Z,16.59
2022-10-23T10:24:38.599Z,16.62
2022-10-23T10:25:39.385Z,16.62
2022-10-23T10:26:38.568Z,16.64
2022-10-23T10:27:38.528Z,16.65
2022-10-23T10:28:38.517Z,16.69
2022-10-23T10:29:38.487Z,16.70
2022-10-23T10:30:38.548Z,16.72
2022-10-23T10:31:38.487Z,16.72
2022-10-23T10:32:38.458Z,16.73
2022-10-23T10:33:38.467Z,16.74
2022-10-23T10:34:38.447Z,16.77
2022-10-23T10:35:45.486Z,16.76
2022-10-23T10:36:38.509Z,16.79
2022-10-23T10:37:38.397Z,16.77
2022-10-23T10:38:38.407Z,16.79
2022-10-23T10:39:38.380Z,16.79
2022-10-23T10:40:38.370Z,16.79
2022-10-23T10:41:38.499Z,16.80
2022-10-23T10:42:38.348Z,16.83
2022-10-23T10:43:38.329Z,16.83
2022-10-23T10:44:38.339Z,16.83
2022-10-23T10:45:38.390Z,16.83
2022-10-23T10:46:38.308Z,16.84
2022-10-23T10:47:38.289Z,16.87
2022-10-23T10:48:38.422Z,16.88
2022-10-23T10:49:38.283Z,16.88
2022-10-23T10:50:38.269Z,16.90
2022-10-23T10:51:38.288Z,16.90
2022-10-23T10:52:38.273Z,16.92
2022-10-23T10:53:38.240Z,16.91
2022-10-23T10:54:38.299Z,16.92
2022-10-23T10:55:38.201Z,16.94
2022-10-23T10:56:38.209Z,16.95
2022-10-23T10:57:38.220Z,16.95
2022-10-23T10:58:38.187Z,16.97
2022-10-23T10:59:38.165Z,16.97
2022-10-23T11:00:38.159Z,16.99
2022-10-23T11:01:38.572Z,16.98
2022-10-23T11:02:38.180Z,16.99
2022-10-23T11:03:40.130Z,17.01
2022-10-23T11:04:38.111Z,17.02
2022-10-23T11:05:38.116Z,17.02
2022-10-23T11:06:38.119Z,17.04
2022-10-23T11:07:38.069Z,17.02
2022-10-23T11:08:49.848Z,17.07
2022-10-23T11:09:39.079Z,17.07
2022-10-23T11:10:38.220Z,17.07
2022-10-23T11:11:38.028Z,17.07
2022-10-23T11:12:38.018Z,17.09
2022-10-23T11:13:38.009Z,17.10
2022-10-23T11:14:38.001Z,17.12
2022-10-23T11:15:38.032Z,17.13
2022-10-23T11:16:38.251Z,17.13
2022-10-23T11:17:37.985Z,17.14
2022-10-23T11:18:37.987Z,17.14
2022-10-23T11:19:37.937Z,17.17
2022-10-23T11:20:37.949Z,17.19
2022-10-23T11:21:37.917Z,17.19
2022-10-23T11:22:37.942Z,17.19
2022-10-23T11:23:37.902Z,17.20
2022-10-23T11:24:37.898Z,17.24
2022-10-23T11:25:37.879Z,17.24
2022-10-23T11:26:37.878Z,17.25
2022-10-23T11:27:37.859Z,17.27
2022-10-23T11:28:39.560Z,17.27
2022-10-23T11:29:37.839Z,17.30
2022-10-23T11:30:37.830Z,17.28
2022-10-23T11:31:37.858Z,17.30
2022-10-23T11:32:37.844Z,17.31
2022-10-23T11:33:39.283Z,17.32
2022-10-23T11:34:37.819Z,17.35
2022-10-23T11:35:37.770Z,17.37
2022-10-23T11:36:37.769Z,17.39
2022-10-23T11:37:37.749Z,17.39
2022-10-23T11:38:37.750Z,17.45
2022-10-23T11:39:37.731Z,17.47
2022-10-23T11:40:37.823Z,17.49
2022-10-23T11:41:37.704Z,17.52
2022-10-23T11:42:37.700Z,17.53
2022-10-23T11:43:37.693Z,17.56
2022-10-23T11:44:37.681Z,17.57
2022-10-23T11:45:37.703Z,17.62
2022-10-23T11:46:37.689Z,17.65
2022-10-23T11:47:40.051Z,17.66
2022-10-23T11:48:37.640Z,17.69
2022-10-23T11:49:37.630Z,17.71
2022-10-23T11:50:37.619Z,17.73
2022-10-23T11:51:37.652Z,17.75
2022-10-23T11:52:45.559Z,17.76
2022-10-23T11:53:38.589Z,17.78
2022-10-23T11:54:37.579Z,17.81
2022-10-23T11:55:37.559Z,17.83
2022-10-23T11:56:37.560Z,17.86
2022-10-23T11:57:37.610Z,17.87
2022-10-23T11:58:37.561Z,17.90
2022-10-23T11:59:37.561Z,17.91
2022-10-23T12:00:37.522Z,17.94
2022-10-23T12:01:37.580Z,17.99
2022-10-23T12:02:37.604Z,18.03
2022-10-23T12:03:37.480Z,18.06
2022-10-23T12:04:37.541Z,18.11
2022-10-23T12:05:37.450Z,18.12
2022-10-23T12:06:37.471Z,18.13
2022-10-23T12:07:37.439Z,18.17
2022-10-23T12:08:37.421Z,18.18
2022-10-23T12:09:37.412Z,18.20
2022-10-23T12:10:42.739Z,18.21
2022-10-23T12:11:37.395Z,18.24
2022-10-23T12:12:37.388Z,18.27
2022-10-23T12:13:37.378Z,18.27
2022-10-23T12:14:37.409Z,18.28
2022-10-23T12:15:37.351Z,18.30
2022-10-23T12:16:37.480Z,18.31
2022-10-23T12:17:37.331Z,18.33
2022-10-23T12:18:37.312Z,18.31
2022-10-23T12:19:37.342Z,18.34
2022-10-23T12:20:37.301Z,18.33
2022-10-23T12:21:37.289Z,18.33
2022-10-23T12:22:37.273Z,18.34
2022-10-23T12:23:37.269Z,18.36
2022-10-23T12:24:37.262Z,18.38
2022-10-23T12:25:37.302Z,18.38
2022-10-23T12:26:37.270Z,18.39
2022-10-23T12:27:37.230Z,18.41
2022-10-23T12:28:37.252Z,18.42
2022-10-23T12:29:37.202Z,18.46
2022-10-23T12:30:37.192Z,18.45
2022-10-23T12:31:37.192Z,18.46
2022-10-23T12:32:37.171Z,18.49
2022-10-23T12:33:37.823Z,18.52
2022-10-23T12:34:37.256Z,18.56
2022-10-23T12:35:37.161Z,18.60
2022-10-23T12:36:37.152Z,18.61
2022-10-23T12:37:37.121Z,18.64
2022-10-23T12:38:37.102Z,18.67
2022-10-23T12:39:37.213Z,18.70
2022-10-23T12:40:37.091Z,18.70
2022-10-23T12:41:37.101Z,18.74
2022-10-23T12:42:37.064Z,18.74
2022-10-23T12:43:37.053Z,18.75
2022-10-23T12:44:37.032Z,18.76
2022-10-23T12:45:37.041Z,18.78
2022-10-23T12:46:37.031Z,18.76
2022-10-23T12:48:37.053Z,18.79
2022-10-23T12:49:36.994Z,18.79
2022-10-23T12:50:36.972Z,18.81
2022-10-23T12:51:36.978Z,18.82
2022-10-23T12:52:36.993Z,18.83
2022-10-23T12:53:36.946Z,18.88
2022-10-23T12:54:36.964Z,18.91
2022-10-23T12:55:36.922Z,18.94
2022-10-23T12:56:36.915Z,18.97
2022-10-23T12:57:36.910Z,19.01